createdAt,value
2018-04-20T00:02:07.908Z,6.30
2018-04-20T00:04:34.224Z,6.90
2018-04-20T00:07:00.518Z,6.07
2018-04-20T00:09:26.815Z,6.37
2018-04-20T00:11:53.115Z,6.77
2018-04-20T00:14:20.216Z,5.67
2018-04-20T00:16:46.553Z,7.77
2018-04-20T00:19:12.926Z,5.10
2018-04-20T00:21:39.234Z,7.50
2018-04-20T00:24:05.602Z,5.80
2018-04-20T00:26:31.999Z,5.73
2018-04-20T00:28:59.095Z,5.30
2018-04-20T00:31:25.444Z,5.77
2018-04-20T00:33:51.746Z,7.10
2018-04-20T00:36:18.006Z,12.10
2018-04-20T00:38:44.329Z,5.00
2018-04-20T00:41:10.608Z,7.37
2018-04-20T00:43:36.958Z,5.37
2018-04-20T00:46:03.262Z,6.27
2018-04-20T00:48:30.550Z,8.37
2018-04-20T00:50:56.842Z,5.30
2018-04-20T00:53:23.144Z,3.93
2018-04-20T00:55:49.437Z,7.57
2018-04-20T00:58:15.718Z,5.50
2018-04-20T01:00:42.061Z,10.33
2018-04-20T01:03:08.362Z,8.23
2018-04-20T01:05:34.646Z,5.83
2018-04-20T01:08:00.947Z,6.10
2018-04-20T01:10:27.267Z,11.70
2018-04-20T01:12:53.585Z,9.07
2018-04-20T01:15:19.911Z,5.80
2018-04-20T01:17:46.234Z,5.37
2018-04-20T01:20:12.526Z,5.43
2018-04-20T01:22:39.569Z,4.90
2018-04-20T01:25:06.594Z,11.07
2018-04-20T01:27:33.706Z,7.10
2018-04-20T01:30:00.001Z,4.87
2018-04-20T01:32:26.388Z,3.90
2018-04-20T01:34:52.658Z,5.73
2018-04-20T01:37:19.684Z,5.60
2018-04-20T01:39:45.965Z,8.37
2018-04-20T01:42:12.246Z,5.30
2018-04-20T01:44:38.559Z,6.20
2018-04-20T01:47:05.646Z,4.60
2018-04-20T01:49:34.368Z,5.37
2018-04-20T01:51:59.233Z,9.53
2018-04-20T01:54:25.525Z,4.97
2018-04-20T01:56:51.830Z,4.40
2018-04-20T01:59:18.158Z,5.70
2018-04-20T02:01:44.502Z,10.27
2018-04-20T02:04:11.007Z,5.83
2018-04-20T02:06:37.306Z,4.20
2018-04-20T02:09:03.613Z,6.83
2018-04-20T02:11:29.929Z,6.67
2018-04-20T02:13:56.231Z,8.00
2018-04-20T02:16:22.600Z,9.27
2018-04-20T02:18:48.882Z,5.00
2018-04-20T02:21:15.138Z,5.70
2018-04-20T02:23:41.466Z,6.77
2018-04-20T02:26:07.798Z,8.40
2018-04-20T02:28:34.094Z,4.90
2018-04-20T02:31:01.214Z,5.60
2018-04-20T02:33:27.478Z,5.90
2018-04-20T02:35:54.527Z,5.53
2018-04-20T02:38:20.839Z,6.23
2018-04-20T02:40:47.884Z,5.37
2018-04-20T02:43:14.162Z,4.50
2018-04-20T02:45:40.458Z,21.53
2018-04-20T02:48:06.736Z,10.40
2018-04-20T02:50:33.033Z,4.90
2018-04-20T02:52:59.341Z,7.63
2018-04-20T02:55:26.422Z,9.67
2018-04-20T02:57:52.756Z,6.40
2018-04-20T03:00:19.049Z,5.97
2018-04-20T03:02:45.321Z,5.37
2018-04-20T03:05:11.647Z,5.63
2018-04-20T03:07:38.026Z,6.07
2018-04-20T03:10:04.312Z,9.97
2018-04-20T03:12:30.618Z,9.37
2018-04-20T03:14:56.914Z,8.10
2018-04-20T03:17:23.241Z,6.10
2018-04-20T03:19:49.506Z,5.07
2018-04-20T03:22:15.857Z,5.17
2018-04-20T03:24:42.145Z,6.20
2018-04-20T03:27:08.483Z,8.57
2018-04-20T03:29:34.781Z,6.90
2018-04-20T03:32:01.066Z,5.60
2018-04-20T03:34:27.382Z,4.23
2018-04-20T03:36:54.386Z,5.83
2018-04-20T03:39:20.661Z,6.93
2018-04-20T03:41:47.685Z,5.60
2018-04-20T03:44:14.029Z,5.13
2018-04-20T03:46:40.367Z,6.53
2018-04-20T03:49:06.633Z,4.63
2018-04-20T03:51:32.931Z,5.00
2018-04-20T03:53:59.985Z,8.10
2018-04-20T03:56:27.014Z,7.60
2018-04-20T03:58:53.259Z,5.47
2018-04-20T04:01:20.270Z,7.10
2018-04-20T04:03:46.570Z,5.27
2018-04-20T04:06:12.883Z,7.40
2018-04-20T04:08:39.171Z,7.57
2018-04-20T04:11:05.501Z,8.93
2018-04-20T04:13:32.564Z,11.47
2018-04-20T04:15:59.579Z,10.90
2018-04-20T04:18:38.216Z,5.07
2018-04-20T04:21:16.824Z,4.67
2018-04-20T04:23:55.282Z,10.50
2018-04-20T04:26:34.667Z,5.57
2018-04-20T04:29:00.981Z,7.10
2018-04-20T04:31:27.241Z,10.03
2018-04-20T04:33:53.573Z,6.87
2018-04-20T04:36:19.838Z,6.27
2018-04-20T04:38:46.861Z,5.67
2018-04-20T04:41:13.170Z,5.57
2018-04-20T04:43:39.450Z,7.93
2018-04-20T04:46:05.756Z,5.43
2018-04-20T04:48:32.009Z,8.57
2018-04-20T04:50:59.037Z,7.00
2018-04-20T04:53:25.293Z,9.70
2018-04-20T04:55:51.599Z,7.10
2018-04-20T04:58:18.609Z,8.50
2018-04-20T05:00:44.901Z,7.33
2018-04-20T05:03:11.176Z,8.30
2018-04-20T05:05:37.466Z,6.27
2018-04-20T05:08:03.778Z,5.40
2018-04-20T05:10:30.836Z,6.93
2018-04-20T05:12:57.126Z,9.37
2018-04-20T05:15:23.488Z,9.37
2018-04-20T05:17:49.912Z,6.33
2018-04-20T05:20:16.930Z,7.73
2018-04-20T05:22:43.197Z,8.57
2018-04-20T05:25:10.258Z,10.77
2018-04-20T05:27:36.563Z,11.10
2018-04-20T05:30:03.613Z,6.37
2018-04-20T05:32:30.675Z,5.53
2018-04-20T05:34:57.725Z,6.27
2018-04-20T05:37:24.023Z,8.63
2018-04-20T05:39:50.386Z,8.30
2018-04-20T05:42:16.734Z,14.60
2018-04-20T05:44:43.041Z,7.57
2018-04-20T05:47:10.108Z,12.77
2018-04-20T05:49:36.405Z,5.70
2018-04-20T05:52:02.762Z,4.90
2018-04-20T05:54:29.110Z,6.00
2018-04-20T05:56:55.444Z,13.97
2018-04-20T05:59:21.756Z,5.87
2018-04-20T06:01:50.057Z,15.43
2018-04-20T06:04:16.374Z,11.13
2018-04-20T06:06:42.727Z,5.73
2018-04-20T06:09:09.852Z,6.33
2018-04-20T06:11:36.176Z,10.93
2018-04-20T06:14:02.524Z,6.37
2018-04-20T06:16:28.908Z,6.73
2018-04-20T06:18:55.217Z,10.47
2018-04-20T06:21:21.566Z,14.43
2018-04-20T06:23:48.634Z,5.50
2018-04-20T06:26:15.012Z,8.40
2018-04-20T06:28:41.297Z,6.87
2018-04-20T06:31:07.642Z,5.47
2018-04-20T06:33:33.911Z,11.20
2018-04-20T06:36:00.197Z,8.23
2018-04-20T06:38:27.350Z,10.63
2018-04-20T06:40:53.630Z,7.43
2018-04-20T06:43:19.951Z,9.17
2018-04-20T06:45:46.307Z,11.30
2018-04-20T06:48:12.677Z,8.97
2018-04-20T06:50:39.880Z,9.53
2018-04-20T06:53:06.189Z,9.20
2018-04-20T06:55:32.485Z,5.53
2018-04-20T06:57:58.802Z,13.83
2018-04-20T07:00:25.086Z,13.13
2018-04-20T07:02:51.378Z,7.10
2018-04-20T07:05:18.421Z,17.27
2018-04-20T07:07:45.474Z,6.97
2018-04-20T07:10:11.799Z,9.23
2018-04-20T07:12:38.115Z,10.80
2018-04-20T07:15:04.411Z,6.30
2018-04-20T07:17:30.698Z,6.37
2018-04-20T07:19:56.986Z,6.77
2018-04-20T07:22:23.278Z,8.47
2018-04-20T07:24:49.545Z,12.03
2018-04-20T07:27:15.859Z,10.47
2018-04-20T07:29:42.186Z,8.20
2018-04-20T07:32:08.471Z,11.30
2018-04-20T07:34:35.495Z,5.80
2018-04-20T07:37:01.790Z,11.17
2018-04-20T07:39:28.099Z,5.67
2018-04-20T07:41:54.416Z,10.23
2018-04-20T07:44:20.722Z,8.33
2018-04-20T07:46:47.045Z,7.50
2018-04-20T07:49:13.322Z,5.93
2018-04-20T07:51:39.610Z,7.47
2018-04-20T07:54:05.869Z,7.60
2018-04-20T07:56:32.913Z,8.67
2018-04-20T07:58:59.203Z,10.40
2018-04-20T08:01:25.503Z,5.30
2018-04-20T08:03:51.770Z,11.43
2018-04-20T08:06:18.058Z,9.80
2018-04-20T08:08:44.338Z,9.27
2018-04-20T08:11:10.671Z,6.23
2018-04-20T08:13:36.968Z,8.97
2018-04-20T08:16:03.247Z,9.53
2018-04-20T08:18:30.307Z,14.10
2018-04-20T08:20:56.598Z,7.80
2018-04-20T08:23:22.920Z,10.70
2018-04-20T08:25:49.255Z,10.37
2018-04-20T08:28:15.522Z,4.90
2018-04-20T08:30:42.538Z,6.67
2018-04-20T08:33:08.861Z,8.47
2018-04-20T08:35:35.166Z,5.73
2018-04-20T08:38:01.439Z,9.73
2018-04-20T08:40:28.462Z,12.53
2018-04-20T08:42:54.780Z,11.80
2018-04-20T08:45:21.053Z,7.63
2018-04-20T08:47:48.110Z,13.53
2018-04-20T08:50:15.124Z,17.73
2018-04-20T08:52:41.437Z,8.70
2018-04-20T08:55:07.705Z,8.10
2018-04-20T08:57:34.735Z,8.53
2018-04-20T09:00:01.047Z,9.70
2018-04-20T09:02:27.366Z,7.03
2018-04-20T09:04:53.695Z,5.30
2018-04-20T09:07:20.715Z,7.87
2018-04-20T09:09:47.002Z,7.53
2018-04-20T09:12:13.284Z,7.33
2018-04-20T09:14:39.569Z,10.53
2018-04-20T09:17:05.834Z,6.87
2018-04-20T09:19:32.108Z,11.00
2018-04-20T09:21:58.438Z,7.10
2018-04-20T09:24:24.754Z,6.27
2018-04-20T09:26:51.766Z,12.10
2018-04-20T09:29:18.773Z,10.90
2018-04-20T09:31:45.081Z,12.93
2018-04-20T09:34:11.390Z,13.73
2018-04-20T09:36:37.695Z,8.60
2018-04-20T09:39:05.038Z,9.87
2018-04-20T09:41:31.317Z,9.20
2018-04-20T09:43:57.630Z,12.43
2018-04-20T09:46:23.916Z,13.13
2018-04-20T09:48:50.986Z,7.50
2018-04-20T09:51:18.007Z,6.50
2018-04-20T09:53:44.287Z,8.43
2018-04-20T09:56:10.573Z,7.70
2018-04-20T09:58:36.847Z,13.33
2018-04-20T10:01:11.178Z,7.73
2018-04-20T10:03:43.410Z,10.40
2018-04-20T10:06:10.474Z,13.70
2018-04-20T10:08:36.835Z,7.90
2018-04-20T10:11:03.200Z,15.03
2018-04-20T10:13:29.510Z,11.37
2018-04-20T10:15:55.816Z,16.13
2018-04-20T10:18:22.107Z,14.20
2018-04-20T10:20:49.152Z,12.30
2018-04-20T10:23:15.435Z,9.70
2018-04-20T10:25:41.726Z,10.13
2018-04-20T10:28:08.141Z,8.90
2018-04-20T10:30:34.456Z,8.93
2018-04-20T10:33:00.753Z,10.40
2018-04-20T10:35:27.067Z,10.13
2018-04-20T10:37:53.344Z,7.33
2018-04-20T10:40:19.617Z,11.13
2018-04-20T10:42:46.715Z,9.33
2018-04-20T10:45:13.022Z,11.37
2018-04-20T10:47:39.329Z,8.53
2018-04-20T10:50:06.379Z,13.93
2018-04-20T10:52:32.711Z,8.60
2018-04-20T10:54:59.000Z,9.60
2018-04-20T10:57:26.071Z,12.30
2018-04-20T10:59:53.250Z,14.93
2018-04-20T11:02:19.594Z,12.83
2018-04-20T11:04:45.912Z,14.53
2018-04-20T11:07:13.306Z,15.67
2018-04-20T11:09:39.610Z,11.43
2018-04-20T11:12:05.929Z,25.33
2018-04-20T11:14:32.563Z,7.30
2018-04-20T11:16:58.973Z,10.53
2018-04-20T11:19:26.016Z,8.33
2018-04-20T11:21:52.306Z,7.40
2018-04-20T11:24:18.599Z,8.70
2018-04-20T11:26:44.891Z,7.60
2018-04-20T11:29:11.210Z,9.67
2018-04-20T11:31:37.498Z,8.53
2018-04-20T11:34:03.772Z,6.33
2018-04-20T11:36:30.081Z,10.17
2018-04-20T11:38:56.377Z,7.63
2018-04-20T11:41:22.670Z,8.37
2018-04-20T11:43:48.942Z,7.37
2018-04-20T11:46:15.260Z,7.17
2018-04-20T11:48:42.289Z,12.30
2018-04-20T11:51:09.425Z,6.47
2018-04-20T11:53:35.774Z,12.77
2018-04-20T11:56:02.819Z,7.33
2018-04-20T11:58:29.149Z,10.57
2018-04-20T12:00:55.441Z,4.97
2018-04-20T12:03:21.844Z,3.83
2018-04-20T12:05:48.938Z,13.30
2018-04-20T12:08:15.239Z,6.03
2018-04-20T12:10:41.505Z,13.70
2018-04-20T12:13:07.814Z,8.07
2018-04-20T12:15:34.098Z,6.37
2018-04-20T12:18:01.148Z,6.73
2018-04-20T12:20:28.180Z,13.53
2018-04-20T12:22:55.208Z,14.13
2018-04-20T12:25:21.587Z,8.47
2018-04-20T12:27:47.918Z,5.27
2018-04-20T12:30:14.342Z,8.47
2018-04-20T12:32:41.350Z,7.97
2018-04-20T12:35:07.663Z,12.63
2018-04-20T12:37:34.085Z,6.47
2018-04-20T12:40:01.063Z,7.17
2018-04-20T12:42:27.383Z,7.00
2018-04-20T12:44:53.815Z,11.70
2018-04-20T12:47:20.098Z,8.20
2018-04-20T12:49:46.469Z,7.87
2018-04-20T12:52:12.983Z,9.47
2018-04-20T12:54:39.290Z,12.23
2018-04-20T12:57:06.321Z,8.20
2018-04-20T12:59:32.840Z,7.30
2018-04-20T13:01:59.123Z,6.33
2018-04-20T13:04:25.523Z,6.83
2018-04-20T13:06:52.582Z,11.73
2018-04-20T13:09:19.688Z,10.40
2018-04-20T13:11:45.979Z,13.33
2018-04-20T13:14:12.283Z,13.37
2018-04-20T13:16:39.274Z,8.50
2018-04-20T13:19:05.562Z,10.17
2018-04-20T13:21:32.614Z,12.50
2018-04-20T13:23:59.668Z,9.97
2018-04-20T13:26:25.979Z,18.53
2018-04-20T13:28:53.014Z,12.70
2018-04-20T13:31:19.318Z,10.63
2018-04-20T13:33:45.622Z,6.73
2018-04-20T13:36:11.923Z,13.83
2018-04-20T13:38:39.094Z,8.23
2018-04-20T13:41:05.420Z,12.83
2018-04-20T13:43:31.799Z,11.20
2018-04-20T13:45:58.125Z,9.67
2018-04-20T13:48:24.426Z,10.33
2018-04-20T13:50:50.725Z,13.13
2018-04-20T13:53:17.006Z,11.43
2018-04-20T13:55:43.369Z,9.47
2018-04-20T13:58:09.628Z,10.70
2018-04-20T14:00:36.633Z,8.03
2018-04-20T14:03:02.944Z,10.13
2018-04-20T14:05:29.266Z,7.57
2018-04-20T14:07:55.554Z,4.83
2018-04-20T14:10:21.893Z,5.90
2018-04-20T14:12:48.212Z,8.37
2018-04-20T14:15:14.496Z,12.33
2018-04-20T14:17:40.807Z,5.97
2018-04-20T14:20:07.146Z,7.47
2018-04-20T14:22:33.426Z,8.93
2018-04-20T14:24:59.696Z,12.37
2018-04-20T14:27:26.007Z,15.13
2018-04-20T14:29:52.290Z,9.27
2018-04-20T14:32:18.592Z,10.20
2018-04-20T14:34:44.903Z,9.90
2018-04-20T14:37:11.918Z,7.70
2018-04-20T14:39:38.223Z,6.80
2018-04-20T14:42:04.531Z,10.60
2018-04-20T14:44:30.867Z,8.43
2018-04-20T14:46:57.149Z,9.90
2018-04-20T14:49:23.454Z,13.40
2018-04-20T14:51:49.713Z,11.77
2018-04-20T14:54:16.055Z,8.50
2018-04-20T14:56:43.140Z,16.23
2018-04-20T14:59:09.409Z,9.13
2018-04-20T15:01:35.688Z,10.83
2018-04-20T15:04:01.982Z,11.33
2018-04-20T15:06:29.030Z,11.20
2018-04-20T15:08:55.342Z,6.77
2018-04-20T15:11:21.603Z,13.87
2018-04-20T15:13:48.677Z,6.03
2018-04-20T15:16:14.999Z,8.87
2018-04-20T15:18:41.259Z,15.67
2018-04-20T15:21:07.554Z,10.20
2018-04-20T15:23:33.816Z,12.20
2018-04-20T15:26:00.110Z,6.53
2018-04-20T15:28:27.118Z,14.60
2018-04-20T15:30:53.438Z,8.60
2018-04-20T15:33:19.744Z,16.10
2018-04-20T15:35:46.037Z,8.00
2018-04-20T15:38:13.054Z,10.17
2018-04-20T15:40:39.367Z,6.67
2018-04-20T15:43:05.666Z,13.90
2018-04-20T15:45:31.969Z,8.60
2018-04-20T15:47:58.245Z,10.03
2018-04-20T15:50:24.530Z,10.37
2018-04-20T15:52:50.778Z,8.50
2018-04-20T15:55:17.799Z,13.63
2018-04-20T15:57:44.061Z,11.43
2018-04-20T16:00:10.386Z,10.90
2018-04-20T16:02:36.761Z,10.50
2018-04-20T16:05:03.027Z,11.50
2018-04-20T16:07:30.066Z,8.07
2018-04-20T16:09:56.418Z,9.73
2018-04-20T16:12:23.433Z,6.47
2018-04-20T16:14:49.683Z,12.67
2018-04-20T16:17:15.982Z,8.10
2018-04-20T16:19:42.238Z,8.70
2018-04-20T16:22:09.246Z,9.43
2018-04-20T16:24:35.550Z,11.00
2018-04-20T16:27:01.872Z,20.07
2018-04-20T16:29:28.156Z,12.37
2018-04-20T16:31:54.477Z,14.20
2018-04-20T16:34:20.758Z,6.70
2018-04-20T16:36:47.022Z,6.70
2018-04-20T16:39:13.388Z,13.90
2018-04-20T16:41:39.627Z,12.60
2018-04-20T16:44:06.653Z,11.70
2018-04-20T16:46:32.968Z,13.90
2018-04-20T16:48:59.231Z,9.33
2018-04-20T16:51:26.237Z,10.27
2018-04-20T16:53:52.571Z,9.40
2018-04-20T16:56:18.950Z,13.23
2018-04-20T16:58:45.230Z,8.43
2018-04-20T17:01:11.561Z,8.73
2018-04-20T17:03:37.909Z,8.97
2018-04-20T17:06:04.209Z,9.63
2018-04-20T17:08:30.514Z,12.07
2018-04-20T17:10:57.520Z,9.20
2018-04-20T17:13:23.783Z,10.73
2018-04-20T17:15:50.830Z,14.00
2018-04-20T17:18:17.893Z,9.90
2018-04-20T17:20:44.943Z,7.03
2018-04-20T17:23:11.292Z,7.90
2018-04-20T17:25:37.588Z,8.93
2018-04-20T17:28:04.635Z,9.60
2018-04-20T17:30:31.663Z,10.00
2018-04-20T17:32:58.022Z,16.00
2018-04-20T17:35:24.259Z,17.67
2018-04-20T17:37:50.600Z,16.10
2018-04-20T17:40:16.880Z,17.10
2018-04-20T17:42:43.131Z,11.50
2018-04-20T17:45:10.275Z,11.30
2018-04-20T17:47:36.561Z,11.87
2018-04-20T17:50:02.888Z,14.77
2018-04-20T17:52:29.201Z,16.63
2018-04-20T17:54:55.519Z,14.23
2018-04-20T17:57:21.843Z,17.60
2018-04-20T17:59:48.922Z,20.90
2018-04-20T18:02:15.249Z,14.17
2018-04-20T18:04:42.274Z,24.40
2018-04-20T18:07:09.318Z,20.17
2018-04-20T18:09:36.357Z,16.90
2018-04-20T18:12:03.416Z,17.80
2018-04-20T18:14:30.467Z,16.37
2018-04-20T18:16:57.461Z,25.40
2018-04-20T18:19:23.731Z,30.93
2018-04-20T18:21:50.807Z,28.17
2018-04-20T18:24:17.110Z,16.50
2018-04-20T18:26:44.144Z,20.47
2018-04-20T18:29:10.459Z,40.53
2018-04-20T18:31:36.787Z,28.17
2018-04-20T18:34:03.857Z,28.33
2018-04-20T18:36:30.934Z,22.40
2018-04-20T18:38:57.299Z,29.07
2018-04-20T18:41:23.674Z,33.53
2018-04-20T18:43:50.755Z,43.43
2018-04-20T18:46:17.050Z,45.87
2018-04-20T18:48:43.339Z,43.90
2018-04-20T18:51:09.639Z,59.23
2018-04-20T18:53:35.921Z,48.20
2018-04-20T18:56:02.265Z,54.43
2018-04-20T18:58:29.298Z,56.13
2018-04-20T19:00:55.578Z,64.90
2018-04-20T19:03:21.872Z,106.10
2018-04-20T19:05:48.201Z,78.43
2018-04-20T19:08:14.494Z,77.57
2018-04-20T19:10:40.792Z,80.17
2018-04-20T19:13:07.114Z,76.43
2018-04-20T19:15:34.163Z,72.77
2018-04-20T19:18:00.474Z,76.73
2018-04-20T19:20:28.696Z,87.70
2018-04-20T19:22:55.004Z,98.60
2018-04-20T19:25:21.331Z,100.03
2018-04-20T19:27:47.663Z,66.03
2018-04-20T19:30:13.974Z,23.37
2018-04-20T19:32:41.001Z,16.13
2018-04-20T19:35:07.337Z,17.50
2018-04-20T19:37:34.410Z,17.87
2018-04-20T19:40:01.505Z,15.13
2018-04-20T19:42:27.878Z,21.87
2018-04-20T19:44:54.938Z,15.33
2018-04-20T19:47:21.963Z,21.93
2018-04-20T19:49:48.294Z,28.90
2018-04-20T19:52:14.594Z,19.40
2018-04-20T19:54:40.869Z,21.97
2018-04-20T19:57:07.158Z,15.47
2018-04-20T19:59:33.445Z,20.03
2018-04-20T20:02:00.488Z,20.30
2018-04-20T20:04:27.536Z,31.63
2018-04-20T20:06:54.566Z,26.20
2018-04-20T20:09:20.846Z,16.87
2018-04-20T20:11:47.218Z,23.13
2018-04-20T20:14:13.540Z,19.77
2018-04-20T20:16:39.842Z,26.07
2018-04-20T20:19:06.191Z,23.10
2018-04-20T20:21:32.488Z,27.97
2018-04-20T20:23:58.810Z,27.93
2018-04-20T20:26:25.158Z,21.87
2018-04-20T20:28:51.490Z,23.83
2018-04-20T20:31:17.811Z,21.47
2018-04-20T20:33:44.126Z,27.30
2018-04-20T20:36:11.165Z,21.27
2018-04-20T20:38:37.454Z,25.23
2018-04-20T20:41:03.855Z,27.57
2018-04-20T20:43:30.161Z,20.57
2018-04-20T20:45:57.218Z,26.07
2018-04-20T20:48:23.564Z,23.27
2018-04-20T20:50:49.864Z,31.30
2018-04-20T20:53:16.154Z,26.00
2018-04-20T20:55:42.458Z,21.60
2018-04-20T20:58:08.743Z,23.47
2018-04-20T21:00:35.003Z,21.90
2018-04-20T21:03:01.334Z,26.73
2018-04-20T21:05:27.605Z,22.23
2018-04-20T21:07:53.869Z,25.43
2018-04-20T21:10:20.949Z,30.97
2018-04-20T21:12:47.344Z,24.43
2018-04-20T21:15:13.625Z,25.83
2018-04-20T21:17:39.987Z,30.77
2018-04-20T21:20:07.060Z,22.03
2018-04-20T21:22:34.127Z,22.60
2018-04-20T21:25:00.423Z,29.90
2018-04-20T21:27:26.738Z,31.23
2018-04-20T21:29:53.034Z,25.37
2018-04-20T21:32:19.402Z,24.07
2018-04-20T21:34:45.674Z,23.53
2018-04-20T21:37:12.738Z,24.80
2018-04-20T21:39:39.078Z,31.60
2018-04-20T21:42:05.407Z,27.63
2018-04-20T21:44:31.738Z,33.50
2018-04-20T21:46:58.039Z,36.93
2018-04-20T21:49:24.378Z,27.47
2018-04-20T21:51:50.693Z,27.13
2018-04-20T21:54:17.360Z,28.13
2018-04-20T21:56:43.650Z,35.10
2018-04-20T21:59:09.961Z,26.90
2018-04-20T22:01:36.292Z,37.53
2018-04-20T22:04:02.621Z,29.90
2018-04-20T22:06:28.916Z,31.90
2018-04-20T22:08:55.280Z,27.30
2018-04-20T22:11:21.621Z,28.70
2018-04-20T22:13:47.994Z,28.93
2018-04-20T22:16:15.116Z,36.87
2018-04-20T22:18:41.402Z,29.60
2018-04-20T22:21:07.705Z,30.87
2018-04-20T22:23:34.110Z,38.67
2018-04-20T22:26:00.414Z,35.20
2018-04-20T22:28:26.735Z,32.87
2018-04-20T22:30:53.103Z,30.73
2018-04-20T22:33:19.399Z,31.33
2018-04-20T22:35:45.705Z,36.60
2018-04-20T22:38:12.020Z,59.77
2018-04-20T22:40:39.099Z,36.20
2018-04-20T22:43:05.403Z,39.27
2018-04-20T22:45:32.454Z,35.47
2018-04-20T22:47:58.739Z,33.57
2018-04-20T22:50:25.002Z,35.87
2018-04-20T22:52:52.043Z,34.67
2018-04-20T22:55:18.336Z,32.60
2018-04-20T22:57:44.615Z,30.47
2018-04-20T23:00:11.705Z,37.43
2018-04-20T23:02:38.019Z,35.33
2018-04-20T23:05:04.333Z,28.50
2018-04-20T23:07:30.625Z,33.53
2018-04-20T23:09:56.902Z,30.93
2018-04-20T23:12:23.180Z,33.47
2018-04-20T23:14:49.470Z,29.87
2018-04-20T23:17:15.754Z,29.47
2018-04-20T23:19:42.803Z,29.63
2018-04-20T23:22:09.145Z,31.10
2018-04-20T23:24:36.183Z,33.07
2018-04-20T23:27:02.467Z,30.13
2018-04-20T23:29:28.822Z,26.10
2018-04-20T23:31:55.089Z,28.33
2018-04-20T23:34:22.119Z,29.90
2018-04-20T23:36:48.430Z,34.23
2018-04-20T23:39:14.701Z,28.90
2018-04-20T23:41:41.712Z,33.67
2018-04-20T23:44:07.998Z,29.53
2018-04-20T23:46:34.262Z,36.23
2018-04-20T23:49:00.538Z,28.33
2018-04-20T23:51:27.627Z,34.30
2018-04-20T23:53:53.901Z,32.53
2018-04-20T23:56:20.210Z,39.40
2018-04-20T23:58:46.493Z,35.57
